Prairie Farm, Wisconsin
Current Conditions -  °F | °C
As of 9:55 AM on Thursday 23 Oct 2014 (Local Time) from KRPD Reporting Station
Haze Haze  
Wind Chill: 45°   Ceiling: 400
Heat Index: 47°   Visibility: 1.2mi
Dew Point: 46°   Wind: 6mph
Humidity: 95%   Direction: 150°SSE
Pressure: 30.03"   Gusts: NA
Location:  45.24°N, 91.98°W
Report Text: KRPD 231455Z AUTO 15005KT 1 1/4SM BR OVC004 09/08 A3003 RMK AO2 T00850077
Loading
Personal Weather Stations






























Interactive Weather Map
Tropical Storm Tracking
New forecast layout! Learn more

10-Day Weather Forecast

Advertisements
Track Severe Weather on mobile